Time;durP1;ratioP1;P1;durP2;ratioP2;P2;SDS_P1;SDS_P2;PMS_P1;PMS_P2;Temp;Humidity;BMP_temperature;BMP_pressure;BME280_temperature;BME280_humidity;BME280_pressure;Samples;Min_cycle;Max_cycle;Signal;HPM_P1;HPM_P2
2021/10/15 00:02:14;;;;;;;16.67;12.75;;;13.30;99.90;;;;;;5043950;28;20053;-67
2021/10/15 00:04:39;;;;;;;16.25;12.65;;;13.40;99.90;;;;;;5025306;28;20034;-67
2021/10/15 00:07:05;;;;;;;15.40;12.95;;;13.30;99.90;;;;;;5023308;28;20081;-66
2021/10/15 00:09:30;;;;;;;18.85;12.93;;;13.40;99.90;;;;;;5025474;28;20033;-66
2021/10/15 00:11:56;;;;;;;19.65;13.88;;;13.30;99.90;;;;;;5024346;28;20033;-66
2021/10/15 00:14:22;;;;;;;18.40;15.13;;;13.30;99.90;;;;;;5025689;28;20112;-66
2021/10/15 00:16:47;;;;;;;23.67;14.75;;;13.30;99.90;;;;;;5024140;28;20037;-66
2021/10/15 00:19:13;;;;;;;22.25;16.73;;;13.30;99.90;;;;;;5040057;28;20037;-66
2021/10/15 00:21:38;;;;;;;18.35;16.42;;;13.30;99.90;;;;;;5025390;28;20065;-66
2021/10/15 00:24:04;;;;;;;24.55;17.73;;;13.30;99.90;;;;;;5024681;28;20045;-66
2021/10/15 00:26:30;;;;;;;23.15;18.45;;;13.30;99.90;;;;;;5019862;28;20041;-66
2021/10/15 00:28:55;;;;;;;23.25;18.92;;;13.30;99.90;;;;;;5021584;28;20041;-67
2021/10/15 00:31:21;;;;;;;20.15;18.02;;;13.30;99.90;;;;;;5022143;28;20042;-66
2021/10/15 00:33:46;;;;;;;22.20;17.77;;;13.30;99.90;;;;;;5025047;28;20038;-66
2021/10/15 00:36:12;;;;;;;19.77;16.42;;;13.30;99.90;;;;;;5021762;28;20061;-66
2021/10/15 00:38:38;;;;;;;19.52;17.52;;;13.30;99.90;;;;;;5022187;28;20087;-66
2021/10/15 00:41:04;;;;;;;19.17;17.15;;;13.30;99.90;;;;;;5042519;28;20053;-66
2021/10/15 00:43:29;;;;;;;22.60;17.88;;;13.30;99.90;;;;;;5025758;28;20045;-67
2021/10/15 00:45:55;;;;;;;21.38;16.25;;;13.30;99.90;;;;;;5042611;28;20439;-67
2021/10/15 00:48:20;;;;;;;18.50;15.75;;;13.30;99.90;;;;;;5023270;28;20087;-67
2021/10/15 00:50:46;;;;;;;20.92;15.35;;;13.30;99.90;;;;;;5024923;28;20085;-66
2021/10/15 00:53:12;;;;;;;19.55;16.20;;;13.30;99.90;;;;;;5024671;28;20443;-67
2021/10/15 00:55:38;;;;;;;19.80;15.57;;;13.30;99.90;;;;;;5023589;28;20044;-66
2021/10/15 00:58:07;;;;;;;20.55;17.08;;;13.30;99.90;;;;;;5024498;28;20459;-67
2021/10/15 01:00:33;;;;;;;19.10;16.42;;;13.30;99.90;;;;;;5028281;28;20033;-67
2021/10/15 01:02:58;;;;;;;19.40;17.40;;;13.30;99.90;;;;;;5029764;28;20050;-66
2021/10/15 01:05:24;;;;;;;20.00;17.35;;;13.30;99.90;;;;;;5027295;28;20125;-66
2021/10/15 01:07:53;;;;;;;21.30;17.02;;;13.30;99.90;;;;;;5030382;28;20049;-66
2021/10/15 01:10:18;;;;;;;24.52;17.65;;;13.30;99.90;;;;;;5030381;28;20120;-66
2021/10/15 01:12:45;;;;;;;20.33;18.02;;;13.30;99.90;;;;;;5027931;28;20120;-66
2021/10/15 01:15:11;;;;;;;22.27;18.30;;;13.30;99.90;;;;;;5031525;28;20479;-66
2021/10/15 01:17:36;;;;;;;20.15;18.05;;;13.30;99.90;;;;;;5046334;28;20072;-66
2021/10/15 01:20:04;;;;;;;24.15;18.90;;;13.30;99.90;;;;;;5027401;28;20132;-67
2021/10/15 01:22:31;;;;;;;25.27;20.58;;;13.30;99.90;;;;;;5025985;28;20132;-67
2021/10/15 01:24:58;;;;;;;24.05;20.13;;;13.30;99.90;;;;;;5031960;28;20065;-66
2021/10/15 01:27:24;;;;;;;23.63;20.52;;;13.20;99.90;;;;;;5031704;28;20049;-66
2021/10/15 01:29:50;;;;;;;25.67;20.70;;;13.30;99.90;;;;;;5030635;28;20037;-66
2021/10/15 01:32:18;;;;;;;22.15;19.85;;;13.20;99.90;;;;;;5026406;28;20053;-67
2021/10/15 01:34:45;;;;;;;28.42;21.83;;;13.20;99.90;;;;;;5032357;28;20041;-66
2021/10/15 01:37:11;;;;;;;25.20;20.58;;;13.20;99.90;;;;;;5026694;28;20083;-66
2021/10/15 01:39:37;;;;;;;26.92;21.92;;;13.30;99.90;;;;;;5027680;28;20073;-67
2021/10/15 01:42:03;;;;;;;25.10;20.85;;;13.20;99.90;;;;;;5034063;28;20083;-67
2021/10/15 01:44:29;;;;;;;25.58;22.77;;;13.20;99.90;;;;;;5029970;28;20038;-66
2021/10/15 01:46:54;;;;;;;24.65;22.13;;;13.20;99.90;;;;;;5028635;28;20041;-66
2021/10/15 01:49:23;;;;;;;25.17;22.35;;;13.20;99.90;;;;;;5027275;28;20033;-67
2021/10/15 01:51:49;;;;;;;26.38;23.58;;;13.20;99.90;;;;;;5029672;28;20116;-66
2021/10/15 01:54:14;;;;;;;26.63;22.13;;;13.20;99.90;;;;;;5028731;28;20584;-66
2021/10/15 01:56:40;;;;;;;26.98;23.83;;;13.20;99.90;;;;;;5032141;28;20048;-67
2021/10/15 01:59:06;;;;;;;24.35;21.90;;;13.20;99.90;;;;;;5028871;28;20133;-66
2021/10/15 02:01:32;;;;;;;24.38;21.95;;;13.20;99.90;;;;;;5028914;28;20045;-66
2021/10/15 02:03:58;;;;;;;24.15;21.60;;;13.20;99.90;;;;;;5029908;28;20037;-67
2021/10/15 02:06:23;;;;;;;23.55;20.95;;;13.20;99.90;;;;;;5027002;28;20408;-67
2021/10/15 02:08:49;;;;;;;26.85;21.02;;;13.20;99.90;;;;;;5028949;28;20042;-67
2021/10/15 02:11:15;;;;;;;23.38;20.75;;;13.20;99.90;;;;;;5027542;28;20037;-66
2021/10/15 02:13:41;;;;;;;25.48;20.42;;;13.20;99.90;;;;;;5044550;28;20112;-66
2021/10/15 02:16:06;;;;;;;24.00;20.98;;;13.20;99.90;;;;;;5032004;28;20037;-66
2021/10/15 02:18:32;;;;;;;27.13;21.10;;;13.20;99.90;;;;;;5029712;28;20099;-67
2021/10/15 02:20:58;;;;;;;23.15;19.65;;;13.20;99.90;;;;;;5026922;28;20074;-67
2021/10/15 02:23:24;;;;;;;22.88;19.33;;;13.10;99.90;;;;;;5033286;28;20625;-66
2021/10/15 02:25:50;;;;;;;25.75;19.23;;;13.20;99.90;;;;;;5027550;28;20786;-67
2021/10/15 02:28:15;;;;;;;26.08;19.33;;;13.20;99.90;;;;;;5029830;28;20038;-66
2021/10/15 02:30:41;;;;;;;29.33;19.02;;;13.20;99.90;;;;;;5030433;28;20140;-66
2021/10/15 02:33:06;;;;;;;24.27;16.70;;;13.20;99.90;;;;;;5042489;28;20041;-66
2021/10/15 02:35:32;;;;;;;20.95;18.48;;;13.20;99.90;;;;;;5030822;28;20040;-66
2021/10/15 02:38:00;;;;;;;24.30;16.88;;;12.90;99.90;;;;;;5023937;28;20144;-67
2021/10/15 02:40:27;;;;;;;19.95;17.17;;;13.20;99.90;;;;;;5029530;28;20081;-66
2021/10/15 02:42:54;;;;;;;18.95;16.40;;;13.20;99.90;;;;;;5027728;28;20076;-66
2021/10/15 02:45:19;;;;;;;23.40;16.63;;;13.20;99.90;;;;;;5011906;28;20128;-67
2021/10/15 02:47:45;;;;;;;26.20;17.88;;;13.20;99.90;;;;;;5040979;28;20124;-67
2021/10/15 02:50:10;;;;;;;25.23;17.40;;;13.30;99.90;;;;;;5028714;28;20840;-67
2021/10/15 02:52:36;;;;;;;18.90;15.45;;;13.30;99.90;;;;;;5031053;28;20079;-67
2021/10/15 02:55:02;;;;;;;18.05;15.20;;;13.30;99.90;;;;;;5031138;28;20083;-67
2021/10/15 02:57:28;;;;;;;19.42;14.73;;;13.30;99.90;;;;;;5033268;28;20049;-66
2021/10/15 02:59:54;;;;;;;23.23;15.70;;;13.30;99.90;;;;;;5041984;28;20546;-66
2021/10/15 03:02:19;;;;;;;24.90;15.38;;;13.30;99.90;;;;;;5026051;28;20041;-66
2021/10/15 03:04:45;;;;;;;23.30;15.70;;;13.30;99.90;;;;;;5029147;28;20145;-66
2021/10/15 03:07:11;;;;;;;21.30;15.07;;;13.30;99.90;;;;;;5027743;28;20049;-66
2021/10/15 03:09:36;;;;;;;25.13;13.85;;;13.30;99.90;;;;;;5030519;28;20445;-66
2021/10/15 03:12:02;;;;;;;18.33;13.32;;;13.40;99.90;;;;;;5045257;28;20389;-66
2021/10/15 03:14:28;;;;;;;18.13;13.32;;;13.30;99.90;;;;;;5027952;28;20806;-66
2021/10/15 03:16:53;;;;;;;19.00;12.85;;;13.40;99.90;;;;;;5026903;28;20139;-67
2021/10/15 03:19:19;;;;;;;18.58;12.68;;;13.40;99.90;;;;;;5028727;28;20128;-66
2021/10/15 03:21:45;;;;;;;22.17;13.38;;;13.40;99.90;;;;;;5026912;28;20041;-66
2021/10/15 03:24:10;;;;;;;21.35;13.20;;;13.40;99.90;;;;;;5028717;28;20037;-66
2021/10/15 03:26:36;;;;;;;23.23;12.55;;;13.40;99.90;;;;;;5031250;28;20068;-66
2021/10/15 03:29:02;;;;;;;17.80;12.45;;;13.40;99.90;;;;;;5030579;28;20102;-66
2021/10/15 03:31:27;;;;;;;21.85;12.93;;;13.40;99.90;;;;;;5030541;28;20037;-67
2021/10/15 03:33:53;;;;;;;17.55;12.73;;;13.50;99.90;;;;;;5032757;28;20384;-67
2021/10/15 03:36:18;;;;;;;19.73;12.45;;;13.40;99.90;;;;;;5029656;28;20095;-66
2021/10/15 03:38:44;;;;;;;19.42;11.68;;;13.40;99.90;;;;;;5023868;28;20050;-67
2021/10/15 03:41:10;;;;;;;17.45;11.90;;;13.40;99.90;;;;;;5027566;28;20391;-66
2021/10/15 03:43:35;;;;;;;18.42;11.32;;;13.40;99.90;;;;;;5030611;28;20047;-66
2021/10/15 03:46:01;;;;;;;15.50;12.30;;;13.50;99.90;;;;;;5027111;28;20069;-67
2021/10/15 03:48:26;;;;;;;18.45;11.98;;;13.40;99.90;;;;;;5028560;28;20041;-66
2021/10/15 03:50:52;;;;;;;20.67;12.02;;;13.50;99.90;;;;;;5024744;28;20068;-66
2021/10/15 03:53:17;;;;;;;22.35;11.88;;;13.50;99.90;;;;;;5027961;28;20057;-67
2021/10/15 03:55:43;;;;;;;22.42;11.10;;;13.50;99.90;;;;;;5012344;28;20479;-66
2021/10/15 03:58:10;;;;;;;15.25;10.77;;;13.50;99.90;;;;;;5025818;28;20112;-66
2021/10/15 04:03:02;;;;;;;17.55;10.23;;;13.50;99.90;;;;;;5119505;27;20784;-67
2021/10/15 04:05:27;;;;;;;17.83;9.27;;;13.50;99.90;;;;;;5120896;27;20048;-66
2021/10/15 04:07:53;;;;;;;17.33;9.75;;;13.50;99.90;;;;;;5121517;27;20073;-67
2021/10/15 04:10:18;;;;;;;23.50;9.23;;;13.40;99.90;;;;;;5119593;27;20386;-67
2021/10/15 04:12:44;;;;;;;21.67;9.93;;;13.50;99.90;;;;;;5124400;27;20040;-67
2021/10/15 04:15:11;;;;;;;19.55;8.88;;;13.50;99.90;;;;;;5124822;27;20043;-67
2021/10/15 04:17:36;;;;;;;16.55;7.50;;;13.50;99.90;;;;;;5120481;27;20040;-67
2021/10/15 04:20:04;;;;;;;15.80;8.55;;;13.50;99.90;;;;;;5147991;27;20573;-67
2021/10/15 04:22:29;;;;;;;16.50;7.57;;;13.50;99.90;;;;;;5119935;27;20043;-67
2021/10/15 04:24:55;;;;;;;14.43;7.45;;;13.50;99.90;;;;;;5128467;27;20038;-67
2021/10/15 04:27:21;;;;;;;18.83;7.43;;;13.50;99.90;;;;;;5119898;27;20043;-67
2021/10/15 04:29:46;;;;;;;20.45;8.65;;;13.50;99.90;;;;;;5117882;27;20043;-67
2021/10/15 04:32:12;;;;;;;16.08;6.95;;;13.50;99.90;;;;;;5122036;27;20035;-67
2021/10/15 04:34:38;;;;;;;17.65;7.43;;;13.50;99.90;;;;;;5118146;27;20071;-67
2021/10/15 04:37:03;;;;;;;13.32;6.10;;;13.50;99.90;;;;;;5119633;27;20096;-67
2021/10/15 04:39:29;;;;;;;11.82;6.22;;;13.50;99.90;;;;;;5116732;28;20066;-67
2021/10/15 04:41:55;;;;;;;12.32;7.05;;;13.50;99.90;;;;;;5123583;27;20046;-67
2021/10/15 04:44:20;;;;;;;14.30;6.63;;;13.40;99.90;;;;;;5119842;27;20035;-67
2021/10/15 04:46:46;;;;;;;21.48;7.43;;;13.50;99.90;;;;;;5123889;27;20028;-67
2021/10/15 04:49:11;;;;;;;19.70;7.82;;;13.50;99.90;;;;;;5118006;27;20035;-67
2021/10/15 04:51:37;;;;;;;15.07;7.97;;;13.50;99.90;;;;;;5119167;27;20447;-67
2021/10/15 04:54:03;;;;;;;20.40;8.02;;;13.50;99.90;;;;;;5119662;27;20036;-67
2021/10/15 04:56:30;;;;;;;19.15;8.25;;;13.40;99.90;;;;;;5119863;27;20077;-68
2021/10/15 04:58:57;;;;;;;17.90;8.73;;;13.50;99.90;;;;;;5114519;27;20050;-67
2021/10/15 05:01:22;;;;;;;23.50;8.02;;;13.40;99.90;;;;;;5117165;27;20036;-67
2021/10/15 05:03:48;;;;;;;17.00;8.13;;;13.40;99.90;;;;;;5122727;27;20050;-67
2021/10/15 05:06:14;;;;;;;18.85;7.72;;;13.30;99.90;;;;;;5121071;27;20028;-67
2021/10/15 05:08:49;;;;;;;17.85;8.00;;;13.30;99.90;;;;;;5110215;28;20028;-67
2021/10/15 05:11:15;;;;;;;16.05;6.45;;;13.30;99.90;;;;;;5143274;27;20031;-67
2021/10/15 05:13:41;;;;;;;17.52;5.95;;;13.30;99.90;;;;;;5086432;28;20048;-67
2021/10/15 05:16:25;;;;;;;13.02;6.20;;;13.30;99.90;;;;;;5100630;28;20702;-67
2021/10/15 05:18:51;;;;;;;14.48;5.82;;;13.20;99.90;;;;;;5098118;27;20032;-67
2021/10/15 05:21:17;;;;;;;8.70;4.80;;;13.20;99.90;;;;;;5097579;28;20032;-68
2021/10/15 05:23:43;;;;;;;14.98;5.05;;;13.20;99.90;;;;;;5082750;28;20146;-67
2021/10/15 05:26:09;;;;;;;11.23;4.80;;;13.20;99.90;;;;;;5095355;27;20046;-68
2021/10/15 05:28:34;;;;;;;10.35;5.30;;;13.20;99.90;;;;;;5129147;27;20151;-67
2021/10/15 05:31:00;;;;;;;7.90;3.97;;;13.20;99.90;;;;;;5126957;27;20154;-67
2021/10/15 05:33:26;;;;;;;12.68;4.32;;;13.20;99.90;;;;;;5098629;28;20087;-67
2021/10/15 05:35:51;;;;;;;10.80;4.03;;;13.10;99.90;;;;;;5097658;27;20040;-67
2021/10/15 05:38:17;;;;;;;3.65;1.15;;;13.20;99.90;;;;;;5099736;27;20039;-67
2021/10/15 05:40:44;;;;;;;2.80;0.52;;;13.10;99.90;;;;;;5097605;28;20046;-67
2021/10/15 05:43:10;;;;;;;2.55;1.05;;;13.00;99.90;;;;;;5101050;28;20165;-67
2021/10/15 05:45:35;;;;;;;7.20;0.65;;;12.80;99.90;;;;;;5093068;27;20258;-67
2021/10/15 05:48:01;;;;;;;1.85;0.20;;;12.80;99.90;;;;;;5099764;28;20345;-67
2021/10/15 05:50:28;;;;;;;0.88;0.08;;;12.60;99.90;;;;;;5098082;28;20088;-67
2021/10/15 05:52:54;;;;;;;2.50;0.17;;;12.60;99.90;;;;;;5094678;28;20051;-67
2021/10/15 05:55:34;;;;;;;0.95;0.10;;;12.50;99.90;;;;;;5097464;27;20070;-67
2021/10/15 06:00:45;;;;;;;2.00;0.20;;;12.20;99.90;;;;;;5097902;27;20047;-67
2021/10/15 06:03:11;;;;;;;2.15;0.20;;;12.20;99.90;;;;;;5096120;27;20286;-67
2021/10/15 06:16:25;;;;;;;5.35;0.60;;;11.90;99.90;;;;;;5097163;28;20039;-67
2021/10/15 06:18:58;;;;;;;4.80;0.57;;;11.80;99.90;;;;;;5124465;27;20486;-67
2021/10/15 06:21:26;;;;;;;5.68;0.55;;;11.80;99.90;;;;;;5127484;27;20044;-67
2021/10/15 06:23:53;;;;;;;8.50;0.50;;;11.80;99.90;;;;;;5096845;27;20052;-67
2021/10/15 06:26:19;;;;;;;7.75;0.47;;;11.80;99.90;;;;;;5097889;27;20043;-67
2021/10/15 06:28:44;;;;;;;4.03;0.45;;;11.70;99.90;;;;;;5096162;28;20035;-67
2021/10/15 06:31:10;;;;;;;7.60;0.75;;;11.70;99.90;;;;;;5094739;27;20040;-68
2021/10/15 06:33:39;;;;;;;6.82;0.47;;;11.70;99.90;;;;;;5095591;28;20047;-67
2021/10/15 06:36:04;;;;;;;7.30;1.00;;;11.60;99.90;;;;;;5099357;27;20031;-68
2021/10/15 06:38:30;;;;;;;8.93;0.60;;;11.60;99.90;;;;;;5096056;28;20055;-67
2021/10/15 06:40:56;;;;;;;5.47;0.50;;;11.50;99.90;;;;;;5100017;28;20043;-67
2021/10/15 06:43:24;;;;;;;2.22;0.50;;;11.60;99.90;;;;;;5098132;27;20035;-67
2021/10/15 06:45:50;;;;;;;6.47;0.65;;;11.50;99.90;;;;;;5099602;27;20047;-67
2021/10/15 06:48:16;;;;;;;6.93;1.73;;;11.50;99.90;;;;;;5095409;28;20032;-67
2021/10/15 06:50:41;;;;;;;6.50;0.50;;;11.50;99.90;;;;;;5096048;28;20109;-67
2021/10/15 06:53:08;;;;;;;5.97;0.50;;;11.60;99.90;;;;;;5100733;27;20039;-67
2021/10/15 06:55:35;;;;;;;5.05;0.70;;;11.50;99.90;;;;;;5094059;28;20047;-67
2021/10/15 06:58:02;;;;;;;5.78;0.70;;;11.50;99.90;;;;;;5096016;28;20146;-67
2021/10/15 07:00:27;;;;;;;8.18;0.70;;;11.50;99.90;;;;;;5080081;28;20051;-67
2021/10/15 07:03:30;;;;;;;8.85;0.85;;;11.50;99.90;;;;;;5095773;28;20460;-67
2021/10/15 07:05:56;;;;;;;10.35;0.90;;;11.50;99.90;;;;;;5094879;28;20599;-67
2021/10/15 07:08:21;;;;;;;14.48;2.33;;;11.40;99.90;;;;;;5092231;28;20048;-67
2021/10/15 07:10:47;;;;;;;9.57;1.00;;;11.40;99.90;;;;;;5094877;28;20058;-67
2021/10/15 07:13:14;;;;;;;9.13;0.95;;;11.40;99.90;;;;;;5092345;28;20040;-67
2021/10/15 07:15:43;;;;;;;7.13;0.57;;;11.30;99.90;;;;;;5097057;28;20049;-67
2021/10/15 07:18:09;;;;;;;8.30;0.57;;;11.30;99.90;;;;;;5096082;27;20035;-67
2021/10/15 07:20:36;;;;;;;6.30;1.10;;;11.30;99.90;;;;;;5092827;28;20489;-67
2021/10/15 07:23:02;;;;;;;4.10;0.93;;;11.30;99.90;;;;;;5092610;27;20096;-67
2021/10/15 07:25:27;;;;;;;7.10;0.93;;;11.20;99.90;;;;;;5093643;27;20032;-67
2021/10/15 07:27:53;;;;;;;8.85;0.98;;;11.30;99.90;;;;;;5094708;28;20038;-67
2021/10/15 07:30:19;;;;;;;8.98;0.40;;;11.20;99.90;;;;;;5096001;27;20047;-67
2021/10/15 07:32:46;;;;;;;7.28;0.90;;;11.20;99.90;;;;;;5096223;28;20043;-67
2021/10/15 07:35:12;;;;;;;5.57;0.88;;;11.20;99.90;;;;;;5093488;27;20422;-67
2021/10/15 07:37:37;;;;;;;4.75;0.80;;;11.20;99.90;;;;;;5093387;28;20087;-67
2021/10/15 07:40:05;;;;;;;8.05;0.80;;;11.20;99.90;;;;;;5098248;27;20043;-67
2021/10/15 07:42:30;;;;;;;7.50;0.90;;;11.30;99.90;;;;;;5093349;28;20031;-67
2021/10/15 07:44:56;;;;;;;8.52;0.70;;;11.30;99.90;;;;;;5091491;28;20047;-67
2021/10/15 07:47:22;;;;;;;7.00;0.60;;;11.40;99.90;;;;;;5097728;27;20290;-67
2021/10/15 07:49:47;;;;;;;6.90;0.70;;;11.50;99.90;;;;;;5094685;28;20363;-67
2021/10/15 07:52:13;;;;;;;7.20;0.50;;;11.60;99.90;;;;;;5093322;28;20096;-67
2021/10/15 07:54:39;;;;;;;10.85;1.25;;;11.70;99.90;;;;;;5098916;27;20044;-67
2021/10/15 07:57:05;;;;;;;4.53;0.40;;;11.70;99.90;;;;;;5092806;28;20071;-67
2021/10/15 07:59:32;;;;;;;11.27;1.13;;;11.70;99.90;;;;;;5095676;28;20061;-67
2021/10/15 08:01:57;;;;;;;10.35;1.08;;;11.70;99.90;;;;;;5096732;28;20051;-67
2021/10/15 08:04:23;;;;;;;5.68;0.52;;;11.80;99.90;;;;;;5094599;28;20410;-67
2021/10/15 08:06:55;;;;;;;8.15;1.08;;;11.80;99.90;;;;;;5091623;28;20051;-67
2021/10/15 08:09:21;;;;;;;3.75;0.80;;;11.70;99.90;;;;;;5096273;28;20043;-67
2021/10/15 08:11:47;;;;;;;5.88;1.05;;;11.80;99.90;;;;;;5095070;28;20036;-67
2021/10/15 08:14:13;;;;;;;8.25;0.85;;;11.80;99.90;;;;;;5091445;28;20098;-67
2021/10/15 08:16:42;;;;;;;4.65;0.98;;;11.90;99.90;;;;;;5095174;28;20046;-67
2021/10/15 08:19:07;;;;;;;8.80;1.08;;;12.00;99.90;;;;;;5094358;28;20382;-67
2021/10/15 08:21:33;;;;;;;10.57;1.40;;;12.10;99.90;;;;;;5094616;28;20093;-67
2021/10/15 08:23:59;;;;;;;6.63;0.93;;;12.20;99.90;;;;;;5095002;28;20040;-67
2021/10/15 08:26:25;;;;;;;5.85;0.90;;;12.30;99.90;;;;;;5094034;28;20034;-67
2021/10/15 08:28:57;;;;;;;6.65;0.88;;;12.30;99.90;;;;;;5091378;28;20044;-67
2021/10/15 08:31:22;;;;;;;9.07;0.82;;;12.30;99.90;;;;;;5097845;28;20055;-67
2021/10/15 08:33:48;;;;;;;5.57;0.80;;;12.30;99.90;;;;;;5093934;28;20044;-67
2021/10/15 08:36:15;;;;;;;9.65;0.90;;;12.30;99.90;;;;;;5094442;28;20078;-67
2021/10/15 08:38:40;;;;;;;6.07;0.57;;;12.30;99.90;;;;;;5095545;28;20052;-67
2021/10/15 08:41:06;;;;;;;9.00;1.23;;;12.30;99.90;;;;;;5093569;28;20059;-67
2021/10/15 08:43:37;;;;;;;6.32;0.82;;;12.30;99.90;;;;;;5095166;28;20056;-67
2021/10/15 08:46:04;;;;;;;10.13;1.08;;;12.30;99.90;;;;;;5096890;28;20104;-67
2021/10/15 08:48:29;;;;;;;8.10;1.35;;;12.30;99.90;;;;;;5092818;28;20043;-67
2021/10/15 08:50:56;;;;;;;4.95;0.93;;;12.30;99.90;;;;;;5097685;28;20104;-67
2021/10/15 08:53:22;;;;;;;6.68;0.95;;;12.30;99.90;;;;;;5095997;27;20039;-67
2021/10/15 08:55:48;;;;;;;11.68;2.25;;;12.30;99.90;;;;;;5098267;28;20039;-67
2021/10/15 08:58:14;;;;;;;8.75;1.13;;;12.30;99.90;;;;;;5099233;28;20039;-67
2021/10/15 09:00:40;;;;;;;13.68;0.80;;;12.40;99.90;;;;;;5098833;27;20062;-67
2021/10/15 09:03:09;;;;;;;6.63;1.08;;;12.40;99.90;;;;;;5098815;28;20157;-68
2021/10/15 09:05:34;;;;;;;9.90;1.58;;;12.50;99.90;;;;;;5099782;27;20036;-67
2021/10/15 09:08:01;;;;;;;12.20;1.08;;;12.40;99.90;;;;;;5097841;28;20414;-67
2021/10/15 09:10:30;;;;;;;10.68;1.27;;;12.40;99.90;;;;;;5095279;27;20047;-67
2021/10/15 09:12:59;;;;;;;8.02;1.20;;;12.50;99.90;;;;;;5096649;27;21377;-67
2021/10/15 09:15:34;;;;;;;10.73;1.10;;;12.40;99.90;;;;;;5097971;28;20478;-67
2021/10/15 09:18:10;;;;;;;;;;;12.60;99.90;;;;;;5096898;27;20044;-67
2021/10/15 09:20:36;;;;;;;10.90;0.97;;;12.50;99.90;;;;;;5096265;27;19927;-67
2021/10/15 09:23:03;;;;;;;12.52;2.25;;;12.60;99.90;;;;;;5097465;27;20309;-67
2021/10/15 09:25:38;;;;;;;7.60;1.35;;;12.60;99.90;;;;;;5097606;28;21584;-67
2021/10/15 09:28:21;;;;;;;13.85;1.48;;;12.70;99.90;;;;;;5128259;27;20482;-67
2021/10/15 09:30:50;;;;;;;15.40;1.60;;;12.80;99.90;;;;;;5095488;28;20122;-67
2021/10/15 09:33:20;;;;;;;15.63;2.05;;;12.80;99.90;;;;;;5094337;28;20039;-67
2021/10/15 09:35:46;;;;;;;12.70;1.30;;;12.80;99.90;;;;;;5096954;27;20093;-67
2021/10/15 09:38:12;;;;;;;12.75;2.65;;;12.90;99.90;;;;;;5097339;28;20078;-67
2021/10/15 09:40:39;;;;;;;11.30;1.70;;;13.00;99.90;;;;;;5100256;28;20039;-67
2021/10/15 09:43:09;;;;;;;10.82;1.83;;;13.10;99.90;;;;;;5099089;28;20040;-67
2021/10/15 09:45:48;;;;;;;14.13;1.45;;;13.20;99.90;;;;;;5098108;28;20066;-67
2021/10/15 09:48:31;;;;;;;9.13;1.35;;;13.30;99.90;;;;;;5127138;27;20087;-67
2021/10/15 09:51:17;;;;;;;10.23;1.73;;;13.40;99.90;;;;;;5102540;27;20047;-67
2021/10/15 09:54:07;;;;;;;15.18;2.03;;;13.50;99.90;;;;;;5107433;28;20756;-67
2021/10/15 09:56:43;;;;;;;15.57;2.28;;;13.50;99.90;;;;;;5091697;27;20044;-67
2021/10/15 09:59:09;;;;;;;16.08;2.38;;;13.50;99.90;;;;;;5098719;27;20044;-67
2021/10/15 10:01:38;;;;;;;14.52;2.70;;;13.30;99.90;;;;;;5104999;27;20055;-67
2021/10/15 10:04:09;;;;;;;15.50;2.65;;;13.30;99.90;;;;;;5107547;27;20043;-67
2021/10/15 10:06:36;;;;;;;16.25;2.15;;;13.20;99.90;;;;;;5074809;28;20043;-67
2021/10/15 10:09:06;;;;;;;20.15;3.00;;;13.20;99.90;;;;;;5090848;28;20449;-67
2021/10/15 10:11:33;;;;;;;13.93;2.22;;;13.40;99.90;;;;;;5105065;27;20043;-67
2021/10/15 10:13:59;;;;;;;20.23;2.97;;;13.40;99.90;;;;;;5098841;27;20054;-67
2021/10/15 10:16:28;;;;;;;15.98;2.72;;;13.40;99.90;;;;;;5096447;27;20040;-67
2021/10/15 10:19:02;;;;;;;17.95;3.80;;;13.50;99.90;;;;;;5103453;27;20047;-67
2021/10/15 10:21:33;;;;;;;16.85;2.88;;;13.70;99.90;;;;;;5097659;28;20039;-67
2021/10/15 10:24:16;;;;;;;21.77;2.85;;;13.70;99.90;;;;;;5104524;28;20042;-67
2021/10/15 10:26:50;;;;;;;19.58;3.58;;;14.00;99.90;;;;;;5089188;27;20592;-67
2021/10/15 10:29:17;;;;;;;21.48;4.32;;;14.20;99.90;;;;;;5099937;28;20546;-67
2021/10/15 10:31:44;;;;;;;15.13;3.03;;;14.30;99.90;;;;;;5096020;27;20112;-67
2021/10/15 10:34:14;;;;;;;13.77;2.30;;;14.50;99.90;;;;;;5097804;28;20040;-67
2021/10/15 10:36:40;;;;;;;14.98;2.17;;;14.50;99.90;;;;;;5097204;28;20899;-67
2021/10/15 10:39:21;;;;;;;12.98;2.20;;;14.60;99.90;;;;;;5076788;28;20043;-67
2021/10/15 10:42:14;;;;;;;14.18;2.78;;;14.70;99.90;;;;;;5099384;27;20626;-67
2021/10/15 10:44:49;;;;;;;13.52;2.53;;;14.70;99.90;;;;;;5093691;28;20058;-67
2021/10/15 10:47:23;;;;;;;13.55;2.13;;;14.70;99.90;;;;;;5112263;27;20044;-67
2021/10/15 10:50:05;;;;;;;14.18;2.20;;;14.90;99.90;;;;;;5099036;27;20032;-67
2021/10/15 10:52:32;;;;;;;13.43;1.95;;;15.10;99.90;;;;;;5098593;28;20043;-67
2021/10/15 10:54:58;;;;;;;11.68;1.73;;;15.20;99.90;;;;;;5098537;27;20109;-67
2021/10/15 10:57:38;;;;;;;12.35;1.95;;;15.40;99.90;;;;;;5096850;27;20496;-67
2021/10/15 11:00:24;;;;;;;13.38;2.10;;;15.50;99.90;;;;;;5104966;27;20738;-67
2021/10/15 11:02:55;;;;;;;15.95;3.28;;;15.70;99.90;;;;;;5101987;28;20044;-67
2021/10/15 11:05:34;;;;;;;19.08;2.97;;;15.80;99.90;;;;;;5101787;28;20032;-67
2021/10/15 11:08:22;;;;;;;13.48;2.50;;;16.00;99.90;;;;;;5129063;27;20035;-67
2021/10/15 11:10:48;;;;;;;16.38;2.22;;;16.10;99.90;;;;;;5107866;27;20039;-67
2021/10/15 11:13:33;;;;;;;11.93;2.40;;;16.30;99.90;;;;;;5101845;27;20723;-67
2021/10/15 11:15:59;;;;;;;13.70;2.85;;;16.30;99.90;;;;;;5106490;27;20069;-67
2021/10/15 11:18:25;;;;;;;16.15;2.88;;;16.30;99.90;;;;;;5102109;28;21734;-67
2021/10/15 11:20:50;;;;;;;17.88;3.42;;;16.40;99.90;;;;;;5101471;28;20054;-66
2021/10/15 11:23:16;;;;;;;17.38;3.40;;;16.40;99.90;;;;;;5103515;28;20080;-67
2021/10/15 11:25:47;;;;;;;11.48;2.90;;;16.50;99.90;;;;;;5105387;28;20254;-67
2021/10/15 11:28:15;;;;;;;12.50;2.47;;;16.60;99.90;;;;;;5104121;28;20032;-67
2021/10/15 11:30:51;;;;;;;18.45;2.92;;;16.60;99.90;;;;;;5135294;27;20059;-67
2021/10/15 11:33:19;;;;;;;14.43;2.80;;;16.60;99.90;;;;;;5103920;28;20443;-67
2021/10/15 11:35:50;;;;;;;13.55;2.90;;;16.70;99.90;;;;;;5088374;27;20040;-67
2021/10/15 11:38:19;;;;;;;10.43;2.30;;;16.70;99.90;;;;;;5128439;27;20043;-67
2021/10/15 11:40:49;;;;;;;16.45;2.47;;;16.90;99.90;;;;;;5103440;28;20048;-67
2021/10/15 11:43:15;;;;;;;16.50;2.10;;;16.90;99.90;;;;;;5102849;27;20032;-67
2021/10/15 11:45:46;;;;;;;11.27;2.65;;;16.70;99.90;;;;;;5102035;28;20084;-67
2021/10/15 11:48:37;;;;;;;19.92;2.80;;;16.40;99.90;;;;;;5086922;28;20477;-67
2021/10/15 11:51:07;;;;;;;11.10;2.03;;;16.20;99.90;;;;;;5106344;28;20096;-67
2021/10/15 11:53:37;;;;;;;15.20;3.10;;;16.20;99.90;;;;;;5104250;28;20469;-67
2021/10/15 11:56:06;;;;;;;13.18;1.95;;;16.40;99.90;;;;;;5101907;28;20081;-67
2021/10/15 11:58:41;;;;;;;13.32;2.53;;;16.50;99.90;;;;;;5099310;28;20089;-67
2021/10/15 12:01:11;;;;;;;13.63;2.30;;;16.50;99.90;;;;;;5130058;27;20044;-67
2021/10/15 12:03:51;;;;;;;13.65;2.35;;;16.50;99.90;;;;;;5104773;28;20093;-67
2021/10/15 12:06:25;;;;;;;17.33;3.33;;;16.50;99.10;;;;;;5101005;28;20043;-67
2021/10/15 12:08:58;;;;;;;12.38;2.30;;;16.40;98.70;;;;;;5102996;28;20035;-67
2021/10/15 12:11:27;;;;;;;15.07;3.42;;;16.50;97.80;;;;;;5098813;28;20035;-67
2021/10/15 12:13:53;;;;;;;12.57;2.20;;;16.40;98.00;;;;;;5101245;28;20056;-67
2021/10/15 12:16:31;;;;;;;12.10;2.13;;;16.50;95.80;;;;;;5102122;28;20040;-67
2021/10/15 12:18:59;;;;;;;12.48;2.13;;;16.60;98.10;;;;;;5099769;28;20049;-67
2021/10/15 12:21:42;;;;;;;13.73;2.25;;;16.80;99.90;;;;;;5100665;28;20055;-67
2021/10/15 12:24:24;;;;;;;16.05;2.88;;;16.60;97.40;;;;;;5107663;27;20031;-67
2021/10/15 12:27:27;;;;;;;11.52;2.63;;;16.40;95.60;;;;;;5105791;28;20042;-67
2021/10/15 12:30:04;;;;;;;8.13;1.52;;;16.10;97.10;;;;;;5092873;27;20040;-67
2021/10/15 12:32:32;;;;;;;10.10;3.03;;;16.00;97.00;;;;;;5104183;28;20508;-67
2021/10/15 12:35:14;;;;;;;17.13;2.88;;;15.80;97.20;;;;;;5102721;27;20088;-67
2021/10/15 12:37:52;;;;;;;13.63;2.55;;;15.80;98.50;;;;;;5104019;28;20048;-67
2021/10/15 12:40:26;;;;;;;13.60;2.78;;;15.80;98.90;;;;;;5106276;28;20043;-67
2021/10/15 12:42:55;;;;;;;11.88;2.83;;;15.70;99.10;;;;;;5108959;27;20043;-67
2021/10/15 12:45:23;;;;;;;12.75;2.38;;;15.80;99.80;;;;;;5104729;28;20114;-67
2021/10/15 12:48:15;;;;;;;14.52;2.80;;;15.90;98.90;;;;;;5103720;28;20119;-67
2021/10/15 12:50:55;;;;;;;14.27;3.88;;;16.00;97.80;;;;;;5097891;27;20066;-67
2021/10/15 12:53:21;;;;;;;12.82;2.00;;;16.00;95.10;;;;;;5107004;27;20031;-67
2021/10/15 12:55:49;;;;;;;16.20;1.95;;;16.20;96.60;;;;;;5104367;27;20401;-67
2021/10/15 12:58:15;;;;;;;11.15;2.38;;;16.40;97.40;;;;;;5105755;28;20063;-67